createdAt,value
2023-05-19T00:01:13.617Z,8.45
2023-05-19T00:04:02.978Z,6.43
2023-05-19T00:06:51.387Z,7.07
2023-05-19T00:09:38.382Z,6.55
2023-05-19T00:12:25.489Z,8.25
2023-05-19T00:15:12.996Z,6.90
2023-05-19T00:17:59.913Z,7.78
2023-05-19T00:20:46.832Z,6.10
2023-05-19T00:23:33.685Z,6.32
2023-05-19T00:26:22.722Z,7.18
2023-05-19T00:29:09.593Z,6.35
2023-05-19T00:31:56.824Z,6.38
2023-05-19T00:34:43.939Z,5.47
2023-05-19T00:37:30.840Z,6.60
2023-05-19T00:40:17.977Z,6.85
2023-05-19T00:43:08.493Z,6.97
2023-05-19T00:45:55.460Z,5.47
2023-05-19T00:48:44.744Z,6.90
2023-05-19T00:51:32.096Z,5.97
2023-05-19T00:54:20.497Z,7.55
2023-05-19T00:57:07.442Z,6.95
2023-05-19T00:59:54.393Z,5.13
2023-05-19T01:02:41.522Z,7.38
2023-05-19T01:05:28.601Z,6.80
2023-05-19T01:08:16.331Z,6.32
2023-05-19T01:11:04.128Z,7.35
2023-05-19T01:13:51.058Z,5.97
2023-05-19T01:16:42.670Z,5.72
2023-05-19T01:19:30.743Z,7.00
2023-05-19T01:22:45.029Z,5.57
2023-05-19T01:25:50.747Z,6.50
2023-05-19T01:28:46.802Z,6.07
2023-05-19T01:31:33.897Z,6.90
2023-05-19T01:34:21.796Z,6.47
2023-05-19T01:37:09.245Z,4.75
2023-05-19T01:39:56.313Z,7.05
2023-05-19T01:42:45.164Z,6.15
2023-05-19T01:48:20.281Z,7.03
2023-05-19T01:51:07.281Z,6.07
2023-05-19T01:53:54.119Z,7.10
2023-05-19T01:57:11.621Z,5.82
2023-05-19T02:00:10.348Z,6.18
2023-05-19T02:03:24.236Z,5.68
2023-05-19T02:06:11.201Z,6.13
2023-05-19T02:09:03.718Z,4.43
2023-05-19T02:12:02.499Z,7.68
2023-05-19T02:15:22.282Z,5.38
2023-05-19T02:18:12.565Z,6.97
2023-05-19T02:20:59.587Z,6.03
2023-05-19T02:23:47.299Z,5.82
2023-05-19T02:26:34.158Z,6.68
2023-05-19T02:29:21.056Z,6.47
2023-05-19T02:32:08.083Z,6.80
2023-05-19T02:34:56.506Z,4.80
2023-05-19T02:37:43.522Z,7.80
2023-05-19T02:40:30.572Z,6.40
2023-05-19T02:43:17.672Z,5.82
2023-05-19T02:46:04.636Z,7.15
2023-05-19T02:48:52.400Z,6.20
2023-05-19T02:51:39.261Z,5.60
2023-05-19T02:54:26.192Z,6.43
2023-05-19T02:57:13.057Z,6.00
2023-05-19T02:59:59.960Z,7.88
2023-05-19T03:02:47.022Z,7.75
2023-05-19T03:05:34.021Z,6.72
2023-05-19T03:08:20.858Z,6.30
2023-05-19T03:11:07.744Z,6.15
2023-05-19T03:13:54.584Z,6.50
2023-05-19T03:16:42.297Z,6.25
2023-05-19T03:19:29.452Z,5.88
2023-05-19T03:22:16.334Z,6.22
2023-05-19T03:25:03.432Z,5.35
2023-05-19T03:27:50.463Z,6.55
2023-05-19T03:30:37.415Z,6.72
2023-05-19T03:33:24.460Z,8.20
2023-05-19T03:36:12.670Z,4.85
2023-05-19T03:38:59.608Z,8.30
2023-05-19T03:41:46.466Z,5.60
2023-05-19T03:44:33.358Z,6.97
2023-05-19T03:47:20.208Z,6.18
2023-05-19T03:50:07.550Z,6.18
2023-05-19T03:52:55.214Z,6.32
2023-05-19T03:55:42.139Z,7.05
2023-05-19T03:58:30.145Z,6.18
2023-05-19T04:01:17.169Z,4.80
2023-05-19T04:04:04.232Z,6.18
2023-05-19T04:06:51.224Z,7.00
2023-05-19T04:09:38.237Z,7.72
2023-05-19T04:12:25.097Z,5.38
2023-05-19T04:15:12.577Z,6.45
2023-05-19T04:17:59.528Z,8.55
2023-05-19T04:20:46.447Z,6.72
2023-05-19T04:23:33.260Z,5.95
2023-05-19T04:26:21.954Z,6.25
2023-05-19T04:29:10.610Z,6.47
2023-05-19T04:31:57.504Z,6.00
2023-05-19T04:34:46.023Z,7.15
2023-05-19T04:37:32.857Z,6.88
2023-05-19T04:40:21.140Z,8.55
2023-05-19T04:43:09.433Z,6.88
2023-05-19T04:45:58.145Z,8.10
2023-05-19T04:48:45.170Z,8.48
2023-05-19T04:51:32.051Z,5.53
2023-05-19T04:54:18.877Z,6.43
2023-05-19T04:57:06.157Z,5.35
2023-05-19T04:59:53.224Z,6.22
2023-05-19T05:02:40.223Z,5.90
2023-05-19T05:05:27.089Z,9.38
2023-05-19T05:08:16.163Z,6.95
2023-05-19T05:11:03.354Z,6.93
2023-05-19T05:13:50.674Z,9.43
2023-05-19T05:16:37.907Z,7.38
2023-05-19T05:19:25.035Z,7.57
2023-05-19T05:22:12.239Z,6.38
2023-05-19T05:24:59.456Z,7.15
2023-05-19T05:27:46.345Z,6.80
2023-05-19T05:30:36.266Z,8.90
2023-05-19T05:33:24.872Z,7.55
2023-05-19T05:36:12.553Z,5.55
2023-05-19T05:38:59.550Z,6.38
2023-05-19T05:41:46.432Z,7.90
2023-05-19T05:44:35.674Z,7.10
2023-05-19T05:47:22.804Z,6.22
2023-05-19T05:50:10.812Z,6.80
2023-05-19T05:52:57.792Z,6.53
2023-05-19T05:55:46.207Z,6.38
2023-05-19T05:58:36.350Z,6.85
2023-05-19T06:01:24.195Z,5.63
2023-05-19T06:04:11.183Z,6.82
2023-05-19T06:07:01.138Z,6.47
2023-05-19T06:09:48.068Z,8.32
2023-05-19T06:12:35.318Z,5.75
2023-05-19T06:15:22.458Z,7.40
2023-05-19T06:18:09.477Z,7.15
2023-05-19T06:20:56.410Z,7.65
2023-05-19T06:23:43.574Z,7.20
2023-05-19T06:26:30.480Z,7.18
2023-05-19T06:29:17.361Z,7.18
2023-05-19T06:32:04.424Z,6.53
2023-05-19T06:34:54.237Z,6.50
2023-05-19T06:37:41.273Z,7.57
2023-05-19T06:40:28.242Z,8.55
2023-05-19T06:43:15.088Z,6.43
2023-05-19T06:46:02.193Z,7.55
2023-05-19T06:48:49.126Z,7.82
2023-05-19T06:51:36.034Z,7.28
2023-05-19T06:54:22.900Z,7.35
2023-05-19T06:57:09.759Z,8.15
2023-05-19T06:59:56.609Z,6.38
2023-05-19T07:02:43.620Z,5.72
2023-05-19T07:05:30.576Z,7.03
2023-05-19T07:08:17.453Z,7.43
2023-05-19T07:11:04.576Z,6.97
2023-05-19T07:13:51.528Z,7.40
2023-05-19T07:16:38.515Z,7.47
2023-05-19T07:19:25.537Z,7.93
2023-05-19T07:22:12.465Z,6.32
2023-05-19T07:24:59.411Z,7.68
2023-05-19T07:27:46.281Z,6.47
2023-05-19T07:30:33.377Z,8.90
2023-05-19T07:33:20.482Z,9.05
2023-05-19T07:36:07.355Z,6.53
2023-05-19T07:38:54.294Z,6.50
2023-05-19T07:41:41.186Z,8.10
2023-05-19T07:44:28.127Z,6.78
2023-05-19T07:47:15.046Z,8.63
2023-05-19T07:50:01.926Z,6.32
2023-05-19T07:52:48.866Z,6.13
2023-05-19T07:55:35.782Z,6.93
2023-05-19T07:58:22.666Z,6.80
2023-05-19T08:01:09.554Z,7.43
2023-05-19T08:03:56.761Z,5.07
2023-05-19T08:06:44.588Z,5.80
2023-05-19T08:09:31.561Z,6.70
2023-05-19T08:12:18.376Z,6.25
2023-05-19T08:15:05.807Z,6.25
2023-05-19T08:17:53.244Z,5.57
2023-05-19T08:20:40.160Z,6.45
2023-05-19T08:23:27.056Z,6.53
2023-05-19T08:26:13.913Z,4.40
2023-05-19T08:29:01.072Z,6.38
2023-05-19T08:31:48.005Z,7.68
2023-05-19T08:34:34.964Z,5.63
2023-05-19T08:37:22.010Z,5.60
2023-05-19T08:40:16.225Z,4.90
2023-05-19T08:43:03.653Z,7.13
2023-05-19T08:45:50.594Z,5.88
2023-05-19T08:48:39.502Z,5.47
2023-05-19T08:54:20.865Z,4.82
2023-05-19T08:57:08.068Z,5.55
2023-05-19T08:59:55.905Z,6.70
2023-05-19T09:02:50.686Z,6.72
2023-05-19T09:05:48.360Z,5.50
2023-05-19T09:08:36.052Z,5.60
2023-05-19T09:11:22.947Z,6.10
2023-05-19T09:14:09.779Z,4.22
2023-05-19T09:16:56.873Z,4.25
2023-05-19T09:19:44.829Z,5.35
2023-05-19T09:22:33.420Z,3.75
2023-05-19T09:25:22.618Z,6.95
2023-05-19T09:28:09.499Z,5.82
2023-05-19T09:31:07.373Z,6.93
2023-05-19T09:33:54.341Z,4.43
2023-05-19T09:36:42.402Z,5.65
2023-05-19T09:39:29.902Z,4.17
2023-05-19T09:42:16.965Z,4.10
2023-05-19T09:45:04.831Z,3.65
2023-05-19T09:47:51.898Z,4.53
2023-05-19T09:50:38.813Z,4.90
2023-05-19T09:53:25.770Z,5.18
2023-05-19T09:56:15.096Z,4.72
2023-05-19T09:59:05.235Z,4.18
2023-05-19T10:01:56.770Z,6.20
2023-05-19T10:04:44.040Z,4.07
2023-05-19T10:07:31.243Z,5.45
2023-05-19T10:10:20.836Z,4.60
2023-05-19T10:13:07.856Z,5.05
2023-05-19T10:15:59.201Z,5.10
2023-05-19T10:18:47.233Z,3.78
2023-05-19T10:21:34.207Z,4.10
2023-05-19T10:24:23.962Z,4.28
2023-05-19T10:27:12.462Z,4.65
2023-05-19T10:30:05.040Z,5.72
2023-05-19T10:32:52.595Z,4.20
2023-05-19T10:36:02.577Z,6.22
2023-05-19T10:39:06.896Z,3.60
2023-05-19T10:42:24.787Z,3.58
2023-05-19T10:45:21.336Z,3.00
2023-05-19T10:48:14.019Z,3.92
2023-05-19T10:51:00.973Z,3.25
2023-05-19T10:53:49.999Z,4.18
2023-05-19T10:56:42.276Z,4.53
2023-05-19T10:59:34.637Z,3.38
2023-05-19T11:02:36.546Z,3.70
2023-05-19T11:05:29.889Z,2.67
2023-05-19T11:08:17.968Z,2.50
2023-05-19T11:11:17.279Z,4.03
2023-05-19T11:14:04.202Z,2.70
2023-05-19T11:16:59.090Z,3.03
2023-05-19T11:19:57.456Z,4.03
2023-05-19T11:23:01.764Z,4.75
2023-05-19T11:25:51.271Z,3.45
2023-05-19T11:28:38.682Z,2.05
2023-05-19T11:31:28.168Z,3.80
2023-05-19T11:34:15.890Z,3.08
2023-05-19T11:37:02.862Z,2.20
2023-05-19T11:39:49.813Z,3.55
2023-05-19T11:42:37.120Z,2.58
2023-05-19T11:45:28.192Z,3.17
2023-05-19T11:48:18.362Z,3.40
2023-05-19T11:51:06.665Z,4.43
2023-05-19T11:53:54.708Z,2.17
2023-05-19T11:56:42.392Z,4.13
2023-05-19T11:59:32.261Z,1.92
2023-05-19T12:02:24.994Z,3.75
2023-05-19T12:05:19.604Z,2.92
2023-05-19T12:08:06.552Z,2.45
2023-05-19T12:10:54.129Z,2.58
2023-05-19T12:13:41.182Z,2.65
2023-05-19T12:16:35.417Z,2.47
2023-05-19T12:19:26.196Z,3.05
2023-05-19T12:22:13.989Z,2.38
2023-05-19T12:25:01.833Z,3.47
2023-05-19T12:27:49.649Z,4.87
2023-05-19T12:30:36.797Z,5.93
2023-05-19T12:33:24.661Z,4.88
2023-05-19T12:36:13.558Z,5.10
2023-05-19T12:39:00.663Z,2.70
2023-05-19T12:41:47.563Z,2.95
2023-05-19T12:44:38.753Z,2.75
2023-05-19T12:47:35.844Z,2.00
2023-05-19T12:50:29.964Z,2.25
2023-05-19T12:53:16.932Z,3.13
2023-05-19T12:56:12.026Z,2.72
2023-05-19T12:59:00.780Z,3.40
2023-05-19T13:04:41.701Z,3.80
2023-05-19T13:07:28.595Z,5.00
2023-05-19T13:10:15.506Z,3.22
2023-05-19T13:13:03.018Z,2.53
2023-05-19T13:15:49.855Z,2.60
2023-05-19T13:18:37.690Z,3.17
2023-05-19T13:21:24.989Z,2.07
2023-05-19T13:24:11.813Z,2.90
2023-05-19T13:26:58.705Z,2.40
2023-05-19T13:29:45.664Z,2.80
2023-05-19T13:32:32.753Z,3.67
2023-05-19T13:35:20.084Z,1.98
2023-05-19T13:38:09.874Z,3.40
2023-05-19T13:40:57.282Z,2.80
2023-05-19T13:43:44.144Z,2.47
2023-05-19T13:46:44.220Z,3.45
2023-05-19T13:49:31.965Z,2.28
2023-05-19T13:52:20.672Z,3.80
2023-05-19T13:57:54.747Z,2.97
2023-05-19T14:00:41.647Z,4.88
2023-05-19T14:03:28.670Z,3.50
2023-05-19T14:06:15.633Z,4.50
2023-05-19T14:09:02.716Z,4.47
2023-05-19T14:11:49.804Z,3.25
2023-05-19T14:14:36.704Z,4.93
2023-05-19T14:17:23.811Z,4.57
2023-05-19T14:20:11.122Z,4.32
2023-05-19T14:22:58.044Z,4.25
2023-05-19T14:25:44.893Z,3.47
2023-05-19T14:28:31.755Z,4.05
2023-05-19T14:31:18.752Z,3.05
2023-05-19T14:34:05.787Z,3.05
2023-05-19T14:36:52.654Z,3.92
2023-05-19T14:39:39.515Z,3.33
2023-05-19T14:42:26.345Z,4.18
2023-05-19T14:45:13.539Z,4.43
2023-05-19T14:48:00.538Z,4.25
2023-05-19T14:50:50.365Z,3.63
2023-05-19T14:53:37.252Z,3.45
2023-05-19T14:56:24.251Z,3.45
2023-05-19T14:59:11.116Z,2.00
2023-05-19T15:01:57.990Z,3.85
2023-05-19T15:04:44.935Z,3.47
2023-05-19T15:07:31.814Z,2.17
2023-05-19T15:10:21.786Z,2.83
2023-05-19T15:13:08.654Z,3.63
2023-05-19T15:16:08.402Z,3.42
2023-05-19T15:19:02.200Z,3.85
2023-05-19T15:21:50.626Z,2.53
2023-05-19T15:24:37.499Z,4.03
2023-05-19T15:27:24.368Z,3.78
2023-05-19T15:30:11.469Z,3.80
2023-05-19T15:32:58.375Z,3.70
2023-05-19T15:35:45.401Z,3.65
2023-05-19T15:38:35.500Z,3.90
2023-05-19T15:41:22.352Z,2.22
2023-05-19T15:44:09.311Z,4.22
2023-05-19T15:46:56.223Z,3.83
2023-05-19T15:49:43.182Z,3.33
2023-05-19T15:52:30.026Z,3.13
2023-05-19T15:55:16.886Z,3.83
2023-05-19T15:58:03.727Z,3.53
2023-05-19T16:00:50.609Z,3.85
2023-05-19T16:03:37.778Z,3.33
2023-05-19T16:06:25.111Z,4.88
2023-05-19T16:09:12.007Z,4.53
2023-05-19T16:11:58.862Z,4.20
2023-05-19T16:14:45.768Z,4.25
2023-05-19T16:17:32.763Z,4.57
2023-05-19T16:20:21.387Z,3.75
2023-05-19T16:23:08.364Z,4.78
2023-05-19T16:25:55.385Z,5.38
2023-05-19T16:28:42.399Z,4.80
2023-05-19T16:31:29.250Z,4.53
2023-05-19T16:34:16.429Z,5.80
2023-05-19T16:37:03.448Z,5.78
2023-05-19T16:39:50.391Z,5.32
2023-05-19T16:42:37.271Z,4.75
2023-05-19T16:45:26.198Z,3.33
2023-05-19T16:48:13.182Z,4.65
2023-05-19T16:51:00.151Z,4.43
2023-05-19T16:53:47.136Z,4.47
2023-05-19T16:56:34.109Z,5.38
2023-05-19T16:59:20.935Z,4.57
2023-05-19T17:02:08.228Z,4.85
2023-05-19T17:04:55.510Z,5.63
2023-05-19T17:07:42.375Z,4.32
2023-05-19T17:10:29.263Z,4.05
2023-05-19T17:13:16.134Z,3.70
2023-05-19T17:16:03.086Z,4.72
2023-05-19T17:18:50.020Z,4.43
2023-05-19T17:21:36.924Z,3.95
2023-05-19T17:24:23.784Z,3.95
2023-05-19T17:27:10.789Z,5.55
2023-05-19T17:29:57.823Z,4.03
2023-05-19T17:32:44.786Z,4.43
2023-05-19T17:35:33.342Z,4.63
2023-05-19T17:38:20.283Z,4.70
2023-05-19T17:41:10.897Z,4.40
2023-05-19T17:43:57.796Z,3.92
2023-05-19T17:46:44.729Z,4.88
2023-05-19T17:49:31.609Z,4.80
2023-05-19T17:52:21.809Z,4.20
2023-05-19T17:55:09.591Z,5.68
2023-05-19T17:57:58.609Z,3.97
2023-05-19T18:00:45.849Z,5.60
2023-05-19T18:03:33.139Z,4.40
2023-05-19T18:06:20.902Z,4.38
2023-05-19T18:09:10.978Z,4.07
2023-05-19T18:12:01.983Z,3.75
2023-05-19T18:14:50.248Z,4.97
2023-05-19T18:17:37.234Z,4.38
2023-05-19T18:20:24.141Z,4.47
2023-05-19T18:23:11.407Z,4.75
2023-05-19T18:25:58.335Z,3.85
2023-05-19T18:28:45.233Z,4.72
2023-05-19T18:31:32.266Z,4.72
2023-05-19T18:34:19.317Z,4.95
2023-05-19T18:37:06.171Z,3.88
2023-05-19T18:39:53.042Z,5.32
2023-05-19T18:42:39.917Z,5.13
2023-05-19T18:45:26.801Z,4.20
2023-05-19T18:48:16.774Z,4.30
2023-05-19T18:51:03.916Z,3.72
2023-05-19T18:53:51.261Z,4.13
2023-05-19T18:56:38.263Z,4.03
2023-05-19T18:59:25.936Z,3.45
2023-05-19T19:02:12.804Z,4.20
2023-05-19T19:04:59.932Z,5.38
2023-05-19T19:07:47.128Z,4.75
2023-05-19T19:10:34.741Z,4.30
2023-05-19T19:13:22.504Z,4.83
2023-05-19T19:16:09.430Z,5.68
2023-05-19T19:18:56.365Z,4.72
2023-05-19T19:21:43.363Z,4.75
2023-05-19T19:24:31.361Z,5.03
2023-05-19T19:27:20.570Z,5.03
2023-05-19T19:30:08.244Z,5.40
2023-05-19T19:32:56.850Z,6.28
2023-05-19T19:38:33.920Z,4.30
2023-05-19T19:41:21.266Z,4.90
2023-05-19T19:44:08.217Z,4.60
2023-05-19T19:46:55.157Z,5.57
2023-05-19T19:49:42.110Z,5.25
2023-05-19T19:52:28.997Z,5.68
2023-05-19T19:55:16.214Z,5.50
2023-05-19T19:58:03.073Z,5.00
2023-05-19T20:00:50.205Z,5.03
2023-05-19T20:03:37.255Z,4.30
2023-05-19T20:06:24.236Z,5.57
2023-05-19T20:09:11.151Z,4.47
2023-05-19T20:11:57.985Z,5.22
2023-05-19T20:14:44.967Z,5.78
2023-05-19T20:17:31.880Z,4.53
2023-05-19T20:20:18.824Z,5.13
2023-05-19T20:23:05.800Z,4.45
2023-05-19T20:26:10.305Z,4.80
2023-05-19T20:28:59.164Z,5.65
2023-05-19T20:31:46.629Z,5.38
2023-05-19T20:34:33.592Z,5.57
2023-05-19T20:37:22.081Z,4.53
2023-05-19T20:40:09.246Z,6.07
2023-05-19T20:42:56.279Z,5.10
2023-05-19T20:45:44.250Z,5.03
2023-05-19T20:48:31.506Z,5.10
2023-05-19T20:51:22.355Z,5.53
2023-05-19T20:54:09.247Z,4.95
2023-05-19T20:56:56.127Z,5.00
2023-05-19T20:59:42.999Z,5.68
2023-05-19T21:02:29.908Z,5.32
2023-05-19T21:05:16.890Z,4.32
2023-05-19T21:08:03.908Z,5.72
2023-05-19T21:10:51.177Z,5.95
2023-05-19T21:13:39.333Z,6.30
2023-05-19T21:16:28.467Z,5.57
2023-05-19T21:19:15.625Z,5.78
2023-05-19T21:22:02.568Z,7.15
2023-05-19T21:24:49.551Z,4.50
2023-05-19T21:27:36.564Z,5.78
2023-05-19T21:30:23.619Z,5.15
2023-05-19T21:33:11.606Z,4.97
2023-05-19T21:36:01.277Z,5.22
2023-05-19T21:38:48.516Z,6.20
2023-05-19T21:41:37.534Z,6.05
2023-05-19T21:44:25.199Z,5.20
2023-05-19T21:47:12.065Z,5.00
2023-05-19T21:49:58.936Z,5.65
2023-05-19T21:52:45.945Z,6.07
2023-05-19T21:55:32.808Z,5.78
2023-05-19T21:58:19.760Z,4.50
2023-05-19T22:01:06.627Z,6.50
2023-05-19T22:03:54.044Z,7.30
2023-05-19T22:06:41.114Z,7.30
2023-05-19T22:09:28.641Z,7.13
2023-05-19T22:12:15.572Z,5.85
2023-05-19T22:15:03.026Z,5.93
2023-05-19T22:17:49.935Z,6.00
2023-05-19T22:20:37.451Z,6.32
2023-05-19T22:23:24.332Z,7.03
2023-05-19T22:26:13.508Z,5.97
2023-05-19T22:29:00.339Z,6.53
2023-05-19T22:31:47.453Z,6.10
2023-05-19T22:34:34.432Z,7.10
2023-05-19T22:37:23.043Z,6.43
2023-05-19T22:40:13.081Z,7.00
2023-05-19T22:43:00.022Z,5.45
2023-05-19T22:45:47.044Z,6.78
2023-05-19T22:48:34.180Z,6.65
2023-05-19T22:51:21.255Z,6.63
2023-05-19T22:54:10.871Z,6.60
2023-05-19T22:56:58.013Z,5.85
2023-05-19T22:59:44.942Z,6.30
2023-05-19T23:02:32.167Z,6.45
2023-05-19T23:05:19.109Z,6.28
2023-05-19T23:08:06.073Z,5.35
2023-05-19T23:10:56.375Z,6.90
2023-05-19T23:13:43.228Z,6.15
2023-05-19T23:16:30.172Z,7.57
2023-05-19T23:19:19.188Z,7.03
2023-05-19T23:22:08.630Z,6.63
2023-05-19T23:24:56.115Z,5.95
2023-05-19T23:27:43.038Z,5.80
2023-05-19T23:30:33.002Z,7.00
2023-05-19T23:33:20.111Z,6.53
2023-05-19T23:36:09.315Z,6.22
2023-05-19T23:38:56.389Z,5.90
2023-05-19T23:41:43.278Z,8.00
2023-05-19T23:44:30.174Z,6.82
2023-05-19T23:47:17.009Z,7.10
2023-05-19T23:50:04.157Z,7.00
2023-05-19T23:52:51.350Z,7.50
2023-05-19T23:55:38.208Z,6.88
2023-05-19T23:58:25.307Z,6.55
